createdAt,value
2023-02-13T00:02:30.032Z,6.25
2023-02-13T00:05:34.700Z,6.70
2023-02-13T00:08:39.810Z,6.82
2023-02-13T00:11:44.300Z,6.80
2023-02-13T00:14:48.894Z,7.43
2023-02-13T00:17:53.683Z,6.57
2023-02-13T00:21:05.507Z,6.80
2023-02-13T00:24:10.601Z,6.28
2023-02-13T00:27:15.776Z,6.25
2023-02-13T00:30:22.158Z,5.40
2023-02-13T00:33:27.346Z,5.80
2023-02-13T00:36:32.428Z,5.53
2023-02-13T00:39:37.232Z,5.28
2023-02-13T00:42:42.003Z,5.82
2023-02-13T00:45:46.965Z,6.05
2023-02-13T00:48:51.829Z,6.38
2023-02-13T00:51:56.993Z,6.93
2023-02-13T00:55:02.174Z,7.10
2023-02-13T00:58:07.106Z,6.18
2023-02-13T01:01:11.845Z,6.63
2023-02-13T01:04:16.557Z,7.47
2023-02-13T01:07:21.259Z,7.60
2023-02-13T01:10:26.740Z,6.78
2023-02-13T01:13:31.923Z,7.35
2023-02-13T01:16:36.918Z,7.15
2023-02-13T01:19:41.820Z,6.50
2023-02-13T01:22:46.689Z,6.75
2023-02-13T01:25:51.723Z,6.20
2023-02-13T01:28:58.034Z,6.43
2023-02-13T01:32:05.072Z,6.85
2023-02-13T01:35:12.235Z,6.78
2023-02-13T01:38:17.437Z,6.88
2023-02-13T01:41:24.247Z,6.78
2023-02-13T01:44:52.058Z,6.47
2023-02-13T01:48:05.784Z,6.20
2023-02-13T01:51:19.741Z,6.47
2023-02-13T01:54:32.723Z,7.15
2023-02-13T01:57:40.566Z,7.22
2023-02-13T02:00:49.762Z,6.32
2023-02-13T02:04:06.098Z,6.80
2023-02-13T02:07:19.436Z,6.40
2023-02-13T02:10:26.473Z,6.55
2023-02-13T02:13:31.240Z,6.53
2023-02-13T02:16:41.444Z,6.57
2023-02-13T02:19:58.244Z,6.72
2023-02-13T02:23:46.456Z,6.43
2023-02-13T02:27:24.890Z,6.25
2023-02-13T02:30:51.007Z,6.70
2023-02-13T02:34:24.952Z,6.60
2023-02-13T02:38:02.806Z,5.65
2023-02-13T02:41:55.013Z,6.07
2023-02-13T02:45:25.815Z,5.90
2023-02-13T02:48:58.950Z,6.55
2023-02-13T02:52:08.983Z,6.38
2023-02-13T02:55:28.616Z,7.13
2023-02-13T02:59:19.588Z,6.35
2023-02-13T03:02:43.425Z,6.13
2023-02-13T03:06:07.885Z,6.00
2023-02-13T03:09:37.660Z,6.00
2023-02-13T03:13:16.814Z,5.60
2023-02-13T03:16:42.750Z,5.80
2023-02-13T03:20:40.825Z,5.72
2023-02-13T03:23:54.759Z,6.50
2023-02-13T03:27:15.399Z,5.80
2023-02-13T03:30:55.138Z,6.20
2023-02-13T03:34:09.562Z,6.10
2023-02-13T03:37:34.851Z,5.82
2023-02-13T03:41:10.534Z,5.53
2023-02-13T03:44:40.860Z,5.75
2023-02-13T03:47:47.269Z,5.68
2023-02-13T03:50:52.112Z,5.68
2023-02-13T03:54:01.980Z,5.25
2023-02-13T03:57:25.781Z,5.97
2023-02-13T04:00:38.572Z,5.55
2023-02-13T04:04:11.628Z,5.80
2023-02-13T04:07:32.047Z,5.93
2023-02-13T04:10:53.357Z,5.97
2023-02-13T04:14:11.296Z,5.63
2023-02-13T04:17:51.753Z,5.88
2023-02-13T04:20:56.856Z,6.15
2023-02-13T04:24:02.279Z,6.53
2023-02-13T04:27:07.329Z,7.13
2023-02-13T04:30:13.248Z,6.07
2023-02-13T04:33:18.175Z,4.97
2023-02-13T04:36:23.376Z,5.82
2023-02-13T04:39:28.442Z,5.88
2023-02-13T04:42:33.029Z,5.93
2023-02-13T04:45:37.839Z,6.55
2023-02-13T04:48:42.522Z,7.10
2023-02-13T04:51:47.244Z,7.75
2023-02-13T04:54:52.471Z,7.32
2023-02-13T04:57:57.516Z,8.07
2023-02-13T05:01:02.786Z,8.10
2023-02-13T05:04:08.444Z,7.60
2023-02-13T05:07:13.788Z,7.30
2023-02-13T05:10:29.625Z,7.30
2023-02-13T05:13:34.703Z,7.68
2023-02-13T05:16:39.786Z,9.15
2023-02-13T05:19:44.525Z,18.05
2023-02-13T05:23:10.937Z,7.55
2023-02-13T05:26:15.576Z,8.10
2023-02-13T05:29:20.554Z,8.43
2023-02-13T05:32:25.745Z,8.55
2023-02-13T05:35:30.635Z,8.20
2023-02-13T05:38:35.656Z,8.68
2023-02-13T05:41:40.445Z,8.70
2023-02-13T05:44:45.136Z,8.60
2023-02-13T05:47:50.274Z,8.90
2023-02-13T05:50:56.050Z,20.02
2023-02-13T05:54:01.574Z,7.97
2023-02-13T05:57:19.623Z,7.05
2023-02-13T06:00:24.985Z,5.78
2023-02-13T06:03:32.055Z,7.38
2023-02-13T06:06:37.027Z,7.03
2023-02-13T06:09:42.325Z,5.30
2023-02-13T06:12:47.043Z,5.38
2023-02-13T06:15:52.862Z,3.88
2023-02-13T06:18:58.225Z,3.95
2023-02-13T06:22:02.840Z,4.32
2023-02-13T06:25:07.877Z,3.97
2023-02-13T06:28:12.720Z,4.90
2023-02-13T06:31:17.763Z,6.70
2023-02-13T06:34:22.628Z,5.45
2023-02-13T06:37:27.687Z,5.45
2023-02-13T06:40:32.722Z,4.65
2023-02-13T06:43:39.180Z,6.88
2023-02-13T06:46:44.604Z,6.85
2023-02-13T06:49:49.616Z,6.28
2023-02-13T06:52:54.451Z,5.90
2023-02-13T06:55:59.370Z,4.47
2023-02-13T06:59:04.498Z,14.48
2023-02-13T07:02:13.062Z,9.98
2023-02-13T07:05:18.084Z,3.85
2023-02-13T07:08:23.428Z,6.47
2023-02-13T07:11:28.567Z,13.50
2023-02-13T07:14:33.453Z,4.65
2023-02-13T07:17:38.503Z,4.22
2023-02-13T07:20:43.602Z,4.65
2023-02-13T07:23:48.682Z,6.00
2023-02-13T07:26:53.496Z,4.10
2023-02-13T07:29:58.387Z,4.72
2023-02-13T07:33:04.931Z,3.60
2023-02-13T07:36:09.558Z,3.28
2023-02-13T07:39:14.923Z,3.40
2023-02-13T07:42:19.825Z,2.95
2023-02-13T07:45:24.810Z,3.03
2023-02-13T07:48:29.806Z,3.63
2023-02-13T07:51:34.429Z,3.10
2023-02-13T07:54:47.163Z,3.15
2023-02-13T07:57:52.316Z,5.57
2023-02-13T08:00:57.425Z,2.80
2023-02-13T08:04:02.518Z,2.88
2023-02-13T08:07:07.798Z,3.40
2023-02-13T08:10:32.648Z,3.50
2023-02-13T08:13:37.834Z,3.00
2023-02-13T08:16:43.001Z,3.10
2023-02-13T08:19:47.907Z,3.58
2023-02-13T08:22:52.804Z,8.00
2023-02-13T08:26:01.872Z,4.88
2023-02-13T08:29:07.125Z,3.40
2023-02-13T08:32:12.578Z,4.28
2023-02-13T08:35:17.795Z,3.70
2023-02-13T08:38:22.422Z,3.00
2023-02-13T08:41:27.258Z,4.68
2023-02-13T08:44:32.196Z,3.33
2023-02-13T08:47:38.177Z,3.47
2023-02-13T08:50:42.979Z,3.70
2023-02-13T08:53:47.851Z,4.05
2023-02-13T08:56:52.749Z,3.75
2023-02-13T08:59:57.678Z,3.15
2023-02-13T09:03:03.587Z,3.25
2023-02-13T09:06:08.541Z,3.33
2023-02-13T09:09:13.416Z,3.17
2023-02-13T09:12:18.341Z,4.13
2023-02-13T09:15:23.416Z,3.22
2023-02-13T09:18:28.990Z,3.53
2023-02-13T09:21:33.632Z,3.65
2023-02-13T09:24:38.657Z,3.40
2023-02-13T09:27:43.432Z,4.07
2023-02-13T09:30:49.156Z,3.75
2023-02-13T09:33:53.956Z,3.63
2023-02-13T09:36:58.737Z,3.58
2023-02-13T09:40:04.251Z,3.28
2023-02-13T09:43:32.489Z,3.33
2023-02-13T09:46:41.278Z,3.38
2023-02-13T09:49:58.155Z,3.35
2023-02-13T09:53:04.535Z,2.95
2023-02-13T09:56:25.462Z,2.75
2023-02-13T09:59:46.734Z,4.18
2023-02-13T10:02:57.537Z,4.43
2023-02-13T10:06:11.452Z,5.07
2023-02-13T10:09:54.366Z,4.57
2023-02-13T10:13:16.553Z,3.97
2023-02-13T10:16:51.145Z,4.72
2023-02-13T10:20:18.333Z,4.50
2023-02-13T10:23:28.871Z,4.22
2023-02-13T10:26:46.406Z,3.65
2023-02-13T10:30:36.710Z,4.20
2023-02-13T10:33:53.470Z,5.00
2023-02-13T10:36:58.721Z,3.70
2023-02-13T10:40:06.682Z,4.32
2023-02-13T10:43:17.776Z,3.70
2023-02-13T10:46:56.439Z,3.53
2023-02-13T10:50:20.842Z,5.03
2023-02-13T10:53:56.716Z,5.47
2023-02-13T10:57:37.257Z,3.97
2023-02-13T11:01:14.470Z,3.42
2023-02-13T11:04:20.221Z,4.50
2023-02-13T11:07:27.496Z,4.00
2023-02-13T11:10:32.132Z,4.13
2023-02-13T11:13:36.963Z,3.30
2023-02-13T11:17:03.478Z,3.78
2023-02-13T11:20:38.115Z,4.53
2023-02-13T11:23:50.467Z,6.30
2023-02-13T11:27:08.643Z,5.13
2023-02-13T11:30:33.606Z,4.10
2023-02-13T11:33:38.607Z,11.00
2023-02-13T11:36:43.881Z,5.82
2023-02-13T11:39:52.392Z,4.75
2023-02-13T11:42:57.119Z,4.60
2023-02-13T11:46:03.917Z,4.85
2023-02-13T11:49:19.169Z,4.45
2023-02-13T11:52:35.483Z,5.03
2023-02-13T11:55:42.688Z,4.60
2023-02-13T11:59:02.181Z,4.88
2023-02-13T12:02:23.195Z,5.85
2023-02-13T12:05:28.903Z,5.50
2023-02-13T12:08:36.483Z,5.03
2023-02-13T12:11:51.731Z,4.75
2023-02-13T12:14:57.446Z,5.22
2023-02-13T12:18:29.220Z,5.25
2023-02-13T12:22:08.216Z,6.10
2023-02-13T12:25:26.986Z,5.15
2023-02-13T12:28:51.463Z,6.35
2023-02-13T12:32:15.194Z,4.78
2023-02-13T12:35:45.246Z,5.03
2023-02-13T12:39:10.140Z,5.13
2023-02-13T12:42:38.958Z,5.80
2023-02-13T12:45:57.568Z,6.35
2023-02-13T12:49:11.957Z,4.00
2023-02-13T12:52:22.783Z,5.05
2023-02-13T12:55:46.029Z,4.68
2023-02-13T12:59:40.709Z,4.85
2023-02-13T13:03:10.197Z,4.55
2023-02-13T13:06:46.066Z,4.90
2023-02-13T13:10:30.733Z,4.75
2023-02-13T13:14:10.947Z,4.53
2023-02-13T13:17:46.216Z,4.93
2023-02-13T13:21:25.520Z,4.70
2023-02-13T13:25:00.307Z,3.92
2023-02-13T13:28:22.615Z,4.90
2023-02-13T13:31:28.667Z,5.68
2023-02-13T13:34:35.563Z,4.30
2023-02-13T13:38:06.870Z,4.25
2023-02-13T13:41:55.118Z,4.25
2023-02-13T13:45:08.454Z,3.53
2023-02-13T13:48:29.191Z,4.63
2023-02-13T13:51:34.542Z,10.30
2023-02-13T13:54:39.391Z,3.33
2023-02-13T13:57:59.665Z,3.40
2023-02-13T14:01:30.896Z,3.20
2023-02-13T14:04:35.560Z,3.50
2023-02-13T14:07:42.202Z,3.13
2023-02-13T14:10:49.683Z,5.43
2023-02-13T14:13:54.622Z,3.13
2023-02-13T14:17:04.041Z,3.22
2023-02-13T14:20:36.552Z,3.83
2023-02-13T14:23:50.537Z,3.95
2023-02-13T14:27:05.116Z,5.82
2023-02-13T14:30:34.324Z,7.10
2023-02-13T14:33:38.973Z,4.43
2023-02-13T14:37:02.531Z,5.47
2023-02-13T14:40:31.689Z,5.30
2023-02-13T14:43:42.316Z,4.30
2023-02-13T14:46:49.105Z,4.47
2023-02-13T14:49:55.788Z,4.30
2023-02-13T14:53:03.510Z,4.45
2023-02-13T14:56:13.396Z,5.28
2023-02-13T14:59:32.703Z,5.82
2023-02-13T15:02:44.602Z,5.20
2023-02-13T15:05:55.230Z,4.68
2023-02-13T15:09:05.264Z,4.88
2023-02-13T15:12:33.150Z,4.78
2023-02-13T15:15:38.181Z,4.82
2023-02-13T15:18:47.925Z,8.23
2023-02-13T15:21:57.341Z,4.85
2023-02-13T15:25:02.538Z,5.93
2023-02-13T15:28:09.047Z,5.10
2023-02-13T15:31:24.662Z,5.32
2023-02-13T15:34:34.293Z,5.50
2023-02-13T15:37:39.122Z,5.47
2023-02-13T15:40:44.837Z,5.70
2023-02-13T15:43:56.116Z,5.28
2023-02-13T15:47:14.381Z,7.07
2023-02-13T15:50:23.506Z,4.85
2023-02-13T15:53:29.883Z,5.18
2023-02-13T15:56:35.226Z,5.45
2023-02-13T15:59:40.560Z,5.88
2023-02-13T16:02:47.815Z,6.28
2023-02-13T16:05:53.392Z,6.95
2023-02-13T16:09:00.315Z,6.32
2023-02-13T16:12:27.422Z,7.13
2023-02-13T16:15:35.873Z,7.00
2023-02-13T16:18:41.043Z,7.20
2023-02-13T16:21:48.431Z,7.70
2023-02-13T16:25:04.329Z,7.35
2023-02-13T16:28:25.791Z,8.60
2023-02-13T16:31:31.265Z,8.57
2023-02-13T16:34:37.022Z,6.13
2023-02-13T16:37:51.617Z,6.43
2023-02-13T16:41:07.888Z,7.70
2023-02-13T16:44:30.607Z,7.50
2023-02-13T16:47:35.770Z,8.65
2023-02-13T16:50:40.626Z,10.00
2023-02-13T16:53:45.701Z,10.70
2023-02-13T16:57:00.189Z,8.57
2023-02-13T17:00:25.568Z,11.65
2023-02-13T17:03:33.858Z,13.05
2023-02-13T17:06:39.116Z,11.88
2023-02-13T17:09:43.898Z,16.33
2023-02-13T17:12:50.779Z,10.00
2023-02-13T17:15:55.942Z,9.32
2023-02-13T17:19:01.067Z,9.07
2023-02-13T17:22:06.408Z,9.65
2023-02-13T17:25:30.318Z,6.97
2023-02-13T17:28:35.210Z,9.25
2023-02-13T17:31:42.407Z,7.65
2023-02-13T17:34:47.487Z,6.45
2023-02-13T17:37:52.665Z,6.68
2023-02-13T17:40:57.844Z,5.60
2023-02-13T17:44:03.177Z,5.32
2023-02-13T17:47:08.230Z,7.43
2023-02-13T17:50:14.007Z,5.97
2023-02-13T17:53:21.581Z,6.93
2023-02-13T17:56:26.485Z,6.35
2023-02-13T17:59:31.741Z,7.28
2023-02-13T18:02:36.656Z,6.15
2023-02-13T18:05:41.706Z,6.50
2023-02-13T18:08:46.810Z,6.50
2023-02-13T18:12:04.594Z,20.77
2023-02-13T18:15:11.318Z,12.45
2023-02-13T18:18:16.855Z,8.07
2023-02-13T18:21:23.001Z,9.73
2023-02-13T18:24:32.380Z,12.65
2023-02-13T18:27:37.397Z,5.85
2023-02-13T18:30:43.084Z,5.80
2023-02-13T18:33:48.188Z,6.60
2023-02-13T18:36:53.040Z,7.05
2023-02-13T18:39:57.826Z,6.97
2023-02-13T18:43:02.573Z,7.43
2023-02-13T18:46:07.610Z,7.43
2023-02-13T18:49:12.590Z,6.40
2023-02-13T18:52:17.547Z,7.50
2023-02-13T18:55:22.659Z,7.10
2023-02-13T18:58:27.316Z,7.43
2023-02-13T19:01:32.210Z,9.45
2023-02-13T19:04:38.217Z,7.70
2023-02-13T19:07:43.485Z,7.05
2023-02-13T19:10:48.443Z,9.60
2023-02-13T19:14:00.509Z,9.30
2023-02-13T19:17:08.092Z,11.45
2023-02-13T19:20:14.989Z,9.40
2023-02-13T19:23:21.499Z,10.50
2023-02-13T19:26:27.636Z,11.45
2023-02-13T19:29:32.547Z,12.30
2023-02-13T19:32:37.458Z,12.95
2023-02-13T19:35:42.251Z,11.20
2023-02-13T19:38:47.958Z,12.73
2023-02-13T19:41:52.880Z,13.38
2023-02-13T19:44:57.718Z,11.07
2023-02-13T19:48:02.812Z,11.63
2023-02-13T19:51:12.167Z,11.90
2023-02-13T19:54:17.123Z,10.45
2023-02-13T19:57:22.727Z,9.38
2023-02-13T20:00:27.394Z,8.18
2023-02-13T20:03:32.517Z,8.00
2023-02-13T20:06:37.901Z,9.73
2023-02-13T20:09:43.375Z,11.35
2023-02-13T20:12:53.676Z,10.30
2023-02-13T20:15:58.848Z,9.52
2023-02-13T20:19:08.949Z,11.20
2023-02-13T20:22:16.538Z,11.40
2023-02-13T20:25:22.954Z,11.40
2023-02-13T20:28:28.200Z,11.65
2023-02-13T20:31:34.462Z,11.15
2023-02-13T20:34:58.160Z,11.20
2023-02-13T20:38:04.906Z,12.35
2023-02-13T20:41:11.513Z,11.57
2023-02-13T20:44:20.390Z,11.60
2023-02-13T20:47:25.357Z,11.25
2023-02-13T20:50:30.363Z,10.85
2023-02-13T20:53:35.517Z,12.75
2023-02-13T20:56:40.309Z,11.07
2023-02-13T20:59:45.139Z,11.00
2023-02-13T21:02:49.941Z,12.50
2023-02-13T21:05:54.841Z,12.68
2023-02-13T21:09:00.576Z,13.25
2023-02-13T21:12:05.774Z,13.82
2023-02-13T21:15:10.526Z,12.63
2023-02-13T21:18:15.655Z,12.25
2023-02-13T21:21:23.642Z,12.30
2023-02-13T21:24:28.601Z,12.48
2023-02-13T21:27:34.420Z,11.43
2023-02-13T21:30:39.482Z,12.20
2023-02-13T21:33:44.675Z,10.93
2023-02-13T21:36:49.558Z,13.05
2023-02-13T21:39:54.446Z,14.45
2023-02-13T21:42:59.256Z,13.68
2023-02-13T21:46:13.877Z,13.90
2023-02-13T21:49:19.276Z,13.98
2023-02-13T21:52:24.959Z,15.20
2023-02-13T21:55:30.026Z,12.93
2023-02-13T21:58:36.488Z,14.13
2023-02-13T22:01:41.359Z,13.43
2023-02-13T22:04:46.410Z,13.77
2023-02-13T22:08:09.922Z,13.70
2023-02-13T22:11:14.838Z,12.00
2023-02-13T22:14:19.633Z,13.55
2023-02-13T22:17:24.297Z,13.15
2023-02-13T22:20:29.134Z,13.10
2023-02-13T22:23:36.659Z,13.18
2023-02-13T22:26:45.195Z,13.70
2023-02-13T22:29:51.338Z,13.82
2023-02-13T22:32:56.982Z,13.55
2023-02-13T22:36:02.124Z,13.60
2023-02-13T22:39:09.594Z,14.27
2023-02-13T22:42:14.586Z,13.48
2023-02-13T22:45:19.403Z,13.27
2023-02-13T22:48:24.002Z,14.00
2023-02-13T22:51:34.614Z,13.93
2023-02-13T22:54:39.643Z,12.73
2023-02-13T22:57:46.830Z,13.43
2023-02-13T23:00:51.744Z,13.73
2023-02-13T23:03:57.437Z,14.23
2023-02-13T23:07:02.419Z,13.75
2023-02-13T23:10:07.980Z,14.00
2023-02-13T23:13:12.975Z,14.43
2023-02-13T23:16:17.957Z,13.90
2023-02-13T23:19:22.633Z,12.93
2023-02-13T23:22:27.487Z,12.65
2023-02-13T23:25:32.235Z,12.27
2023-02-13T23:28:37.198Z,12.82
2023-02-13T23:31:42.281Z,11.98
2023-02-13T23:34:47.528Z,12.80
2023-02-13T23:37:53.564Z,10.77
2023-02-13T23:41:07.549Z,13.75
2023-02-13T23:44:12.521Z,12.48
2023-02-13T23:47:17.359Z,13.43
2023-02-13T23:50:22.139Z,14.15
2023-02-13T23:53:27.070Z,12.80
2023-02-13T23:56:32.354Z,12.00
2023-02-13T23:59:38.547Z,11.55
